Time,TemperatureF,DewpointF,PressureIn,WindDirection,WindDirectionDegrees,WindSpeedMPH,WindSpeedGustMPH,Humidity,HourlyPrecipIn,Conditions,Clouds,dailyrainin,SoftwareType,DateUTC
2013-02-27 00:01:00,40.0,22.0,30.09,ENE,70,0.0,0.0,49,0.00,,,0.00,,2013-02-27 07:01:00,
2013-02-27 00:11:00,40.0,22.0,30.09,ENE,70,0.0,0.0,49,0.00,,,0.00,,2013-02-27 07:11:00,
2013-02-27 00:21:00,40.0,22.0,30.09,ENE,69,1.0,4.0,49,0.00,,,0.00,,2013-02-27 07:21:00,
2013-02-27 00:31:00,38.0,22.0,30.09,ENE,69,0.0,0.0,52,0.00,,,0.00,,2013-02-27 07:31:00,
2013-02-27 00:41:00,38.0,22.0,30.09,ENE,69,0.0,0.0,52,0.00,,,0.00,,2013-02-27 07:41:00,
2013-02-27 00:51:00,37.0,22.0,30.09,ENE,69,0.0,1.0,55,0.00,,,0.00,,2013-02-27 07:51:00,
2013-02-27 01:01:00,37.0,24.0,30.09,ENE,69,0.0,1.0,59,0.00,,,0.00,,2013-02-27 08:01:00,
2013-02-27 01:11:00,37.0,24.0,30.09,ENE,69,0.0,1.0,59,0.00,,,0.00,,2013-02-27 08:11:00,
2013-02-27 01:21:00,36.0,23.0,30.09,ENE,69,0.0,0.0,59,0.00,,,0.00,,2013-02-27 08:21:00,
2013-02-27 01:31:00,36.0,23.0,30.10,ENE,69,0.0,2.0,59,0.00,,,0.00,,2013-02-27 08:31:00,
2013-02-27 01:41:00,36.0,23.0,30.10,ENE,69,0.0,2.0,59,0.00,,,0.00,,2013-02-27 08:41:00,
2013-02-27 01:52:00,36.0,22.0,30.10,ENE,69,1.0,2.0,57,0.00,,,0.00,,2013-02-27 08:52:00,
2013-02-27 02:01:00,36.0,22.0,30.10,ENE,69,0.0,1.0,57,0.00,,,0.00,,2013-02-27 09:01:00,
2013-02-27 02:11:00,36.0,22.0,30.10,ENE,69,0.0,1.0,57,0.00,,,0.00,,2013-02-27 09:11:00,
2013-02-27 02:21:00,35.0,23.0,30.10,ENE,69,0.0,1.0,61,0.00,,,0.00,,2013-02-27 09:21:00,
2013-02-27 02:31:00,34.0,23.0,30.11,ENE,69,0.0,2.0,63,0.00,,,0.00,,2013-02-27 09:31:00,
2013-02-27 02:41:00,34.0,23.0,30.11,ENE,69,0.0,2.0,63,0.00,,,0.00,,2013-02-27 09:41:00,
2013-02-27 02:51:00,34.0,23.0,30.11,ENE,69,0.0,0.0,63,0.00,,,0.00,,2013-02-27 09:51:00,
2013-02-27 03:01:00,34.0,23.0,30.11,ENE,69,0.0,2.0,65,0.00,,,0.00,,2013-02-27 10:01:00,
2013-02-27 03:12:00,34.0,23.0,30.11,ENE,69,0.0,2.0,65,0.00,,,0.00,,2013-02-27 10:12:00,
2013-02-27 03:21:00,33.0,23.0,30.11,ENE,69,0.0,0.0,65,0.00,,,0.00,,2013-02-27 10:21:00,
2013-02-27 03:31:00,33.0,23.0,30.12,ENE,69,0.0,0.0,66,0.00,,,0.00,,2013-02-27 10:31:00,
2013-02-27 03:41:00,33.0,23.0,30.12,ENE,69,0.0,0.0,66,0.00,,,0.00,,2013-02-27 10:41:00,
2013-02-27 03:52:00,33.0,23.0,30.11,ENE,69,0.0,2.0,65,0.00,,,0.00,,2013-02-27 10:52:00,
2013-02-27 04:01:00,33.0,23.0,30.11,ENE,69,0.0,1.0,65,0.00,,,0.00,,2013-02-27 11:01:00,
2013-02-27 04:11:00,33.0,23.0,30.11,ENE,69,0.0,1.0,65,0.00,,,0.00,,2013-02-27 11:11:00,
2013-02-27 04:21:00,32.0,22.0,30.11,ENE,69,0.0,0.0,67,0.00,,,0.00,,2013-02-27 11:21:00,
2013-02-27 04:31:00,31.0,22.0,30.12,ENE,69,0.0,2.0,68,0.00,,,0.00,,2013-02-27 11:31:00,
2013-02-27 04:41:00,31.0,22.0,30.12,ENE,69,0.0,2.0,68,0.00,,,0.00,,2013-02-27 11:41:00,
2013-02-27 04:52:00,33.0,23.0,30.12,ENE,69,0.0,2.0,65,0.00,,,0.00,,2013-02-27 11:52:00,
2013-02-27 05:01:00,32.0,22.0,30.12,ENE,69,0.0,2.0,65,0.00,,,0.00,,2013-02-27 12:01:00,
2013-02-27 05:12:00,32.0,22.0,30.12,ENE,69,0.0,2.0,65,0.00,,,0.00,,2013-02-27 12:12:00,
2013-02-27 05:21:00,31.0,21.0,30.13,ENE,69,0.0,2.0,67,0.00,,,0.00,,2013-02-27 12:21:00,
2013-02-27 05:32:00,31.0,21.0,30.13,ENE,69,0.0,0.0,67,0.00,,,0.00,,2013-02-27 12:32:00,
2013-02-27 05:41:00,31.0,21.0,30.13,ENE,69,0.0,0.0,67,0.00,,,0.00,,2013-02-27 12:41:00,
2013-02-27 05:52:00,31.0,22.0,30.13,ENE,69,0.0,0.0,70,0.00,,,0.00,,2013-02-27 12:52:00,
2013-02-27 06:01:00,30.0,21.0,30.14,ENE,69,0.0,2.0,70,0.00,,,0.00,,2013-02-27 13:01:00,
2013-02-27 06:11:00,30.0,21.0,30.14,ENE,69,0.0,2.0,70,0.00,,,0.00,,2013-02-27 13:11:00,
2013-02-27 06:21:00,30.0,21.0,30.14,ENE,69,0.0,0.0,70,0.00,,,0.00,,2013-02-27 13:21:00,
2013-02-27 06:31:00,30.0,21.0,30.16,ENE,69,1.0,2.0,70,0.00,,,0.00,,2013-02-27 13:31:00,
2013-02-27 06:41:00,30.0,21.0,30.16,ENE,69,1.0,2.0,70,0.00,,,0.00,,2013-02-27 13:41:00,
2013-02-27 06:52:00,30.0,21.0,30.16,ENE,69,0.0,0.0,70,0.00,,,0.00,,2013-02-27 13:52:00,
2013-02-27 07:01:00,30.0,22.0,30.15,ENE,69,0.0,0.0,71,0.00,,,0.00,,2013-02-27 14:01:00,
2013-02-27 07:11:00,30.0,22.0,30.15,ENE,69,0.0,0.0,71,0.00,,,0.00,,2013-02-27 14:11:00,
2013-02-27 07:21:00,29.0,21.0,30.15,ENE,69,0.0,0.0,73,0.00,,,0.00,,2013-02-27 14:21:00,
2013-02-27 07:31:00,30.0,22.0,30.16,ENE,69,0.0,0.0,73,0.00,,,0.00,,2013-02-27 14:31:00,
2013-02-27 07:41:00,30.0,22.0,30.16,ENE,69,0.0,0.0,73,0.00,,,0.00,,2013-02-27 14:41:00,
2013-02-27 07:52:00,33.0,24.0,30.17,ENE,69,0.0,0.0,68,0.00,,,0.00,,2013-02-27 14:52:00,
2013-02-27 08:01:00,38.0,25.0,30.17,ENE,69,0.0,0.0,58,0.00,,,0.00,,2013-02-27 15:01:00,
2013-02-27 08:11:00,38.0,25.0,30.17,ENE,69,0.0,0.0,58,0.00,,,0.00,,2013-02-27 15:11:00,
2013-02-27 08:21:00,42.0,23.0,30.18,ENE,68,0.0,0.0,47,0.00,,,0.00,,2013-02-27 15:21:00,
2013-02-27 08:31:00,44.0,22.0,30.19,ENE,68,0.0,1.0,42,0.00,,,0.00,,2013-02-27 15:31:00,
2013-02-27 08:41:00,44.0,22.0,30.19,ENE,68,0.0,1.0,42,0.00,,,0.00,,2013-02-27 15:41:00,
2013-02-27 08:52:00,46.0,18.0,30.19,West,275,1.0,4.0,32,0.00,,,0.00,,2013-02-27 15:52:00,
2013-02-27 09:01:00,47.0,17.0,30.19,West,259,3.0,5.0,30,0.00,,,0.00,,2013-02-27 16:01:00,
2013-02-27 09:11:00,47.0,17.0,30.19,West,259,3.0,5.0,30,0.00,,,0.00,,2013-02-27 16:11:00,
2013-02-27 09:21:00,48.0,19.0,30.20,West,261,3.0,6.0,31,0.00,,,0.00,,2013-02-27 16:21:00,
2013-02-27 09:31:00,50.0,21.0,30.21,WNW,283,3.0,6.0,31,0.00,,,0.00,,2013-02-27 16:31:00,
2013-02-27 09:41:00,50.0,21.0,30.21,WNW,283,3.0,6.0,31,0.00,,,0.00,,2013-02-27 16:41:00,
2013-02-27 09:52:00,50.0,21.0,30.20,WSW,255,2.0,6.0,32,0.00,,,0.00,,2013-02-27 16:52:00,
2013-02-27 10:01:00,52.0,22.0,30.21,WSW,245,2.0,5.0,30,0.00,,,0.00,,2013-02-27 17:01:00,
2013-02-27 10:11:00,52.0,22.0,30.21,WSW,245,2.0,5.0,30,0.00,,,0.00,,2013-02-27 17:11:00,
2013-02-27 10:21:00,53.0,18.0,30.20,West,272,3.0,11.0,25,0.00,,,0.00,,2013-02-27 17:21:00,
2013-02-27 10:32:00,55.0,12.0,30.20,East,100,5.0,14.0,18,0.00,,,0.00,,2013-02-27 17:32:00,
2013-02-27 10:41:00,55.0,12.0,30.20,East,100,5.0,14.0,18,0.00,,,0.00,,2013-02-27 17:41:00,
2013-02-27 10:52:00,56.0,9.0,30.19,SE,129,6.0,14.0,15,0.00,,,0.00,,2013-02-27 17:52:00,
2013-02-27 11:01:00,58.0,11.0,30.19,SE,139,6.0,12.0,15,0.00,,,0.00,,2013-02-27 18:01:00,
2013-02-27 11:11:00,58.0,11.0,30.19,SE,139,6.0,12.0,15,0.00,,,0.00,,2013-02-27 18:11:00,
2013-02-27 11:21:00,59.0,10.0,30.19,East,101,6.0,13.0,14,0.00,,,0.00,,2013-02-27 18:21:00,
2013-02-27 11:31:00,60.0,11.0,30.18,East,99,6.0,14.0,14,0.00,,,0.00,,2013-02-27 18:31:00,
2013-02-27 11:41:00,60.0,11.0,30.18,East,99,6.0,14.0,14,0.00,,,0.00,,2013-02-27 18:41:00,
2013-02-27 11:52:00,61.0,10.0,30.18,ESE,102,6.0,15.0,13,0.00,,,0.00,,2013-02-27 18:52:00,
2013-02-27 12:01:00,61.0,8.0,30.18,East,95,7.0,15.0,12,0.00,,,0.00,,2013-02-27 19:01:00,
2013-02-27 12:11:00,61.0,8.0,30.18,East,95,7.0,15.0,12,0.00,,,0.00,,2013-02-27 19:11:00,
2013-02-27 12:21:00,61.0,10.0,30.17,East,97,5.0,14.0,13,0.00,,,0.00,,2013-02-27 19:21:00,
2013-02-27 12:32:00,62.0,9.0,30.16,ESE,105,5.0,13.0,12,0.00,,,0.00,,2013-02-27 19:32:00,
2013-02-27 12:41:00,62.0,9.0,30.16,ESE,105,5.0,13.0,12,0.00,,,0.00,,2013-02-27 19:41:00,
2013-02-27 12:52:00,62.0,7.0,30.16,ENE,73,4.0,9.0,11,0.00,,,0.00,,2013-02-27 19:52:00,
2013-02-27 13:01:00,61.0,6.0,30.16,ENE,77,3.0,8.0,11,0.00,,,0.00,,2013-02-27 20:01:00,
2013-02-27 13:11:00,61.0,6.0,30.16,ENE,77,3.0,8.0,11,0.00,,,0.00,,2013-02-27 20:11:00,
2013-02-27 13:21:00,61.0,6.0,30.15,NE,54,0.0,6.0,11,0.00,,,0.00,,2013-02-27 20:21:00,
2013-02-27 13:31:00,61.0,10.0,30.15,West,272,4.0,9.0,13,0.00,,,0.00,,2013-02-27 20:31:00,
2013-02-27 13:41:00,61.0,10.0,30.15,West,272,4.0,9.0,13,0.00,,,0.00,,2013-02-27 20:41:00,
2013-02-27 13:52:00,62.0,11.0,30.14,WSW,240,3.0,11.0,13,0.00,,,0.00,,2013-02-27 20:52:00,
2013-02-27 14:01:00,62.0,11.0,30.14,West,263,4.0,9.0,13,0.00,,,0.00,,2013-02-27 21:01:00,
2013-02-27 14:11:00,62.0,11.0,30.14,West,263,4.0,9.0,13,0.00,,,0.00,,2013-02-27 21:11:00,
2013-02-27 14:21:00,64.0,10.0,30.13,SW,234,4.0,10.0,12,0.00,,,0.00,,2013-02-27 21:21:00,
2013-02-27 14:31:00,63.0,10.0,30.12,WSW,256,2.0,7.0,12,0.00,,,0.00,,2013-02-27 21:31:00,
2013-02-27 14:41:00,63.0,10.0,30.12,WSW,256,2.0,7.0,12,0.00,,,0.00,,2013-02-27 21:41:00,
2013-02-27 14:51:00,63.0,11.0,30.12,West,268,3.0,8.0,13,0.00,,,0.00,,2013-02-27 21:51:00,
2013-02-27 15:01:00,63.0,11.0,30.11,SW,232,6.0,10.0,13,0.00,,,0.00,,2013-02-27 22:01:00,
2013-02-27 15:11:00,63.0,11.0,30.11,SW,232,6.0,10.0,13,0.00,,,0.00,,2013-02-27 22:11:00,
2013-02-27 15:21:00,63.0,11.0,30.11,WNW,294,6.0,12.0,13,0.00,,,0.00,,2013-02-27 22:21:00,
2013-02-27 15:31:00,63.0,11.0,30.10,WSW,258,5.0,14.0,13,0.00,,,0.00,,2013-02-27 22:31:00,
2013-02-27 15:41:00,63.0,11.0,30.10,WSW,258,5.0,14.0,13,0.00,,,0.00,,2013-02-27 22:41:00,
2013-02-27 15:52:00,63.0,11.0,30.11,SW,230,4.0,14.0,13,0.00,,,0.00,,2013-02-27 22:52:00,
2013-02-27 16:01:00,63.0,11.0,30.10,WSW,258,5.0,11.0,13,0.00,,,0.00,,2013-02-27 23:01:00,
2013-02-27 16:11:00,63.0,11.0,30.10,WSW,258,5.0,11.0,13,0.00,,,0.00,,2013-02-27 23:11:00,
2013-02-27 16:21:00,63.0,10.0,30.11,West,271,3.0,10.0,12,0.00,,,0.00,,2013-02-27 23:21:00,
2013-02-27 16:31:00,62.0,9.0,30.10,West,280,4.0,10.0,12,0.00,,,0.00,,2013-02-27 23:31:00,
2013-02-27 16:41:00,62.0,9.0,30.10,West,280,4.0,10.0,12,0.00,,,0.00,,2013-02-27 23:41:00,
2013-02-27 16:52:00,63.0,8.0,30.10,WSW,246,3.0,11.0,11,0.00,,,0.00,,2013-02-27 23:52:00,
2013-02-27 17:01:00,63.0,8.0,30.10,WNW,298,3.0,10.0,11,0.00,,,0.00,,2013-02-28 00:01:00,
2013-02-27 17:11:00,63.0,8.0,30.10,WNW,298,3.0,10.0,11,0.00,,,0.00,,2013-02-28 00:11:00,
2013-02-27 17:21:00,61.0,6.0,30.10,WSW,250,5.0,9.0,11,0.00,,,0.00,,2013-02-28 00:21:00,
2013-02-27 17:31:00,61.0,6.0,30.11,WSW,238,6.0,12.0,11,0.00,,,0.00,,2013-02-28 00:31:00,
2013-02-27 17:42:00,61.0,6.0,30.11,WSW,238,6.0,12.0,11,0.00,,,0.00,,2013-02-28 00:42:00,
2013-02-27 17:52:00,59.0,6.0,30.11,WSW,243,5.0,13.0,12,0.00,,,0.00,,2013-02-28 00:52:00,
2013-02-27 18:01:00,58.0,7.0,30.11,WSW,257,5.0,11.0,13,0.00,,,0.00,,2013-02-28 01:01:00,
2013-02-27 18:11:00,58.0,7.0,30.11,WSW,257,5.0,11.0,13,0.00,,,0.00,,2013-02-28 01:11:00,
2013-02-27 18:21:00,58.0,7.0,30.11,West,266,3.0,10.0,13,0.00,,,0.00,,2013-02-28 01:21:00,
2013-02-27 18:31:00,57.0,10.0,30.11,WNW,282,2.0,6.0,15,0.00,,,0.00,,2013-02-28 01:31:00,
2013-02-27 18:41:00,57.0,10.0,30.11,WNW,282,2.0,6.0,15,0.00,,,0.00,,2013-02-28 01:41:00,
2013-02-27 18:52:00,55.0,10.0,30.12,WNW,282,0.0,3.0,16,0.00,,,0.00,,2013-02-28 01:52:00,
2013-02-27 19:01:00,53.0,11.0,30.12,West,280,0.0,2.0,18,0.00,,,0.00,,2013-02-28 02:01:00,
2013-02-27 19:11:00,53.0,11.0,30.12,West,280,0.0,2.0,18,0.00,,,0.00,,2013-02-28 02:11:00,
2013-02-27 19:21:00,52.0,13.0,30.13,NE,53,1.0,3.0,21,0.00,,,0.00,,2013-02-28 02:21:00,
2013-02-27 19:31:00,51.0,12.0,30.13,ENE,60,1.0,3.0,21,0.00,,,0.00,,2013-02-28 02:31:00,
2013-02-27 19:41:00,51.0,12.0,30.13,ENE,60,1.0,3.0,21,0.00,,,0.00,,2013-02-28 02:41:00,
2013-02-27 19:52:00,51.0,12.0,30.13,ENE,60,1.0,3.0,21,0.00,,,0.00,,2013-02-28 02:52:00,
2013-02-27 20:01:00,51.0,12.0,30.15,East,95,2.0,5.0,21,0.00,,,0.00,,2013-02-28 03:01:00,
2013-02-27 20:11:00,51.0,12.0,30.15,East,95,2.0,5.0,21,0.00,,,0.00,,2013-02-28 03:11:00,
2013-02-27 20:21:00,51.0,14.0,30.15,East,93,1.0,3.0,22,0.00,,,0.00,,2013-02-28 03:21:00,
2013-02-27 20:31:00,50.0,14.0,30.16,East,91,1.0,3.0,23,0.00,,,0.00,,2013-02-28 03:31:00,
2013-02-27 20:41:00,50.0,14.0,30.16,East,91,1.0,3.0,23,0.00,,,0.00,,2013-02-28 03:41:00,
2013-02-27 20:52:00,48.0,15.0,30.16,East,91,1.0,3.0,26,0.00,,,0.00,,2013-02-28 03:52:00,
2013-02-27 21:01:00,46.0,15.0,30.17,East,91,1.0,2.0,28,0.00,,,0.00,,2013-02-28 04:01:00,
2013-02-27 21:11:00,46.0,15.0,30.17,East,91,1.0,2.0,28,0.00,,,0.00,,2013-02-28 04:11:00,
2013-02-27 21:21:00,45.0,15.0,30.17,East,91,0.0,0.0,29,0.00,,,0.00,,2013-02-28 04:21:00,
2013-02-27 21:31:00,43.0,17.0,30.17,East,91,0.0,0.0,34,0.00,,,0.00,,2013-02-28 04:31:00,
2013-02-27 21:41:00,43.0,17.0,30.17,East,91,0.0,0.0,34,0.00,,,0.00,,2013-02-28 04:41:00,
2013-02-27 21:51:00,42.0,16.0,30.19,NNW,343,0.0,0.0,35,0.00,,,0.00,,2013-02-28 04:51:00,
2013-02-27 22:01:00,43.0,18.0,30.19,NNE,12,1.0,3.0,36,0.00,,,0.00,,2013-02-28 05:01:00,
2013-02-27 22:11:00,43.0,18.0,30.19,NNE,12,1.0,3.0,36,0.00,,,0.00,,2013-02-28 05:11:00,
2013-02-27 22:22:00,42.0,18.0,30.20,NNE,12,0.0,1.0,37,0.00,,,0.00,,2013-02-28 05:22:00,
2013-02-27 22:31:00,40.0,18.0,30.19,North,10,0.0,2.0,41,0.00,,,0.00,,2013-02-28 05:31:00,
2013-02-27 22:42:00,40.0,18.0,30.19,North,10,0.0,2.0,41,0.00,,,0.00,,2013-02-28 05:42:00,
2013-02-27 22:52:00,41.0,17.0,30.20,North,10,1.0,2.0,37,0.00,,,0.00,,2013-02-28 05:52:00,
2013-02-27 23:01:00,41.0,17.0,30.21,North,10,0.0,2.0,37,0.00,,,0.00,,2013-02-28 06:01:00,
2013-02-27 23:11:00,41.0,17.0,30.21,North,10,0.0,2.0,37,0.00,,,0.00,,2013-02-28 06:11:00,
2013-02-27 23:21:00,42.0,16.0,30.21,North,8,1.0,3.0,35,0.00,,,0.00,,2013-02-28 06:21:00,
2013-02-27 23:32:00,42.0,16.0,30.22,North,7,1.0,3.0,34,0.00,,,0.00,,2013-02-28 06:32:00,
2013-02-27 23:41:00,42.0,16.0,30.22,North,7,1.0,3.0,34,0.00,,,0.00,,2013-02-28 06:41:00,
2013-02-27 23:52:00,43.0,16.0,30.21,North,0,2.0,4.0,33,0.00,,,0.00,,2013-02-28 06:52:00,